sensor_id;sensor_type;location;lat;lon;timestamp;P1;durP1;ratioP1;P2;durP2;ratioP2
52982;SDS011;48698;45.736;13.926;2023-07-29T00:02:22;3.58;;;2.95;;
52982;SDS011;48698;45.736;13.926;2023-07-29T00:07:25;6.23;;;3.70;;
52982;SDS011;48698;45.736;13.926;2023-07-29T00:12:29;5.32;;;3.28;;
52982;SDS011;48698;45.736;13.926;2023-07-29T00:17:33;4.40;;;2.90;;
52982;SDS011;48698;45.736;13.926;2023-07-29T00:22:36;4.43;;;2.60;;
52982;SDS011;48698;45.736;13.926;2023-07-29T00:27:39;6.20;;;2.87;;
52982;SDS011;48698;45.736;13.926;2023-07-29T00:32:43;5.87;;;3.40;;
52982;SDS011;48698;45.736;13.926;2023-07-29T00:37:46;6.87;;;3.57;;
52982;SDS011;48698;45.736;13.926;2023-07-29T00:42:50;4.97;;;3.38;;
52982;SDS011;48698;45.736;13.926;2023-07-29T00:47:53;6.45;;;3.33;;
52982;SDS011;48698;45.736;13.926;2023-07-29T00:52:57;7.07;;;3.38;;
52982;SDS011;48698;45.736;13.926;2023-07-29T00:58:01;4.83;;;3.20;;
52982;SDS011;48698;45.736;13.926;2023-07-29T01:03:04;6.40;;;3.60;;
52982;SDS011;48698;45.736;13.926;2023-07-29T01:08:11;7.22;;;3.10;;
52982;SDS011;48698;45.736;13.926;2023-07-29T01:13:27;6.22;;;3.25;;
52982;SDS011;48698;45.736;13.926;2023-07-29T01:18:37;7.13;;;3.30;;
52982;SDS011;48698;45.736;13.926;2023-07-29T01:23:42;4.78;;;3.20;;
52982;SDS011;48698;45.736;13.926;2023-07-29T01:33:56;6.70;;;3.15;;
52982;SDS011;48698;45.736;13.926;2023-07-29T01:39:02;5.43;;;3.20;;
52982;SDS011;48698;45.736;13.926;2023-07-29T01:44:06;7.22;;;3.30;;
52982;SDS011;48698;45.736;13.926;2023-07-29T01:49:09;6.72;;;3.00;;
52982;SDS011;48698;45.736;13.926;2023-07-29T01:54:14;5.22;;;3.40;;
52982;SDS011;48698;45.736;13.926;2023-07-29T01:59:17;7.05;;;3.58;;
52982;SDS011;48698;45.736;13.926;2023-07-29T02:04:21;5.07;;;3.30;;
52982;SDS011;48698;45.736;13.926;2023-07-29T02:09:25;1999.90;;;999.90;;
52982;SDS011;48698;45.736;13.926;2023-07-29T02:14:28;2.43;;;1.87;;
52982;SDS011;48698;45.736;13.926;2023-07-29T02:19:32;111.53;;;18.15;;
52982;SDS011;48698;45.736;13.926;2023-07-29T02:24:35;5.67;;;2.53;;
52982;SDS011;48698;45.736;13.926;2023-07-29T02:29:39;4.60;;;3.20;;
52982;SDS011;48698;45.736;13.926;2023-07-29T02:34:42;5.22;;;2.90;;
52982;SDS011;48698;45.736;13.926;2023-07-29T02:39:46;6.80;;;3.40;;
52982;SDS011;48698;45.736;13.926;2023-07-29T02:44:49;6.67;;;3.10;;
52982;SDS011;48698;45.736;13.926;2023-07-29T02:49:52;4.07;;;3.00;;
52982;SDS011;48698;45.736;13.926;2023-07-29T02:54:56;3.63;;;3.07;;
52982;SDS011;48698;45.736;13.926;2023-07-29T02:59:59;3.63;;;3.07;;
52982;SDS011;48698;45.736;13.926;2023-07-29T03:05:03;5.23;;;3.27;;
52982;SDS011;48698;45.736;13.926;2023-07-29T03:10:07;5.70;;;3.30;;
52982;SDS011;48698;45.736;13.926;2023-07-29T03:15:11;4.43;;;3.33;;
52982;SDS011;48698;45.736;13.926;2023-07-29T03:20:15;7.22;;;3.10;;
52982;SDS011;48698;45.736;13.926;2023-07-29T03:25:21;7.68;;;3.63;;
52982;SDS011;48698;45.736;13.926;2023-07-29T03:30:24;4.80;;;3.23;;
52982;SDS011;48698;45.736;13.926;2023-07-29T03:35:28;5.00;;;3.47;;
52982;SDS011;48698;45.736;13.926;2023-07-29T03:40:31;4.07;;;3.28;;
52982;SDS011;48698;45.736;13.926;2023-07-29T03:45:35;4.90;;;3.30;;
52982;SDS011;48698;45.736;13.926;2023-07-29T03:50:39;4.72;;;3.55;;
52982;SDS011;48698;45.736;13.926;2023-07-29T03:55:43;5.25;;;3.28;;
52982;SDS011;48698;45.736;13.926;2023-07-29T04:00:46;1999.90;;;999.90;;
52982;SDS011;48698;45.736;13.926;2023-07-29T04:05:50;5.67;;;2.90;;
52982;SDS011;48698;45.736;13.926;2023-07-29T04:10:54;1999.90;;;999.90;;
52982;SDS011;48698;45.736;13.926;2023-07-29T04:15:57;1999.90;;;999.90;;
52982;SDS011;48698;45.736;13.926;2023-07-29T04:21:01;1999.90;;;999.90;;
52982;SDS011;48698;45.736;13.926;2023-07-29T04:26:05;1503.63;;;750.70;;
52982;SDS011;48698;45.736;13.926;2023-07-29T04:31:08;1999.90;;;999.90;;
52982;SDS011;48698;45.736;13.926;2023-07-29T04:36:11;1999.90;;;999.90;;
52982;SDS011;48698;45.736;13.926;2023-07-29T04:41:15;1999.90;;;999.90;;
52982;SDS011;48698;45.736;13.926;2023-07-29T04:46:18;1999.90;;;999.90;;
52982;SDS011;48698;45.736;13.926;2023-07-29T04:51:23;1999.90;;;999.90;;
52982;SDS011;48698;45.736;13.926;2023-07-29T04:56:27;1999.90;;;999.90;;
52982;SDS011;48698;45.736;13.926;2023-07-29T05:01:30;1999.90;;;999.90;;
52982;SDS011;48698;45.736;13.926;2023-07-29T05:06:34;1999.90;;;999.90;;
52982;SDS011;48698;45.736;13.926;2023-07-29T05:11:38;1999.90;;;999.90;;
52982;SDS011;48698;45.736;13.926;2023-07-29T05:16:41;7.57;;;5.53;;
52982;SDS011;48698;45.736;13.926;2023-07-29T05:26:49;9.40;;;5.25;;
52982;SDS011;48698;45.736;13.926;2023-07-29T05:31:52;7.07;;;5.05;;
52982;SDS011;48698;45.736;13.926;2023-07-29T05:36:56;9.30;;;5.27;;
52982;SDS011;48698;45.736;13.926;2023-07-29T05:41:59;11.80;;;5.87;;
52982;SDS011;48698;45.736;13.926;2023-07-29T05:47:05;7.68;;;5.72;;
52982;SDS011;48698;45.736;13.926;2023-07-29T05:52:09;8.90;;;5.38;;
52982;SDS011;48698;45.736;13.926;2023-07-29T05:57:12;7.10;;;5.73;;
52982;SDS011;48698;45.736;13.926;2023-07-29T06:02:16;8.13;;;5.40;;
52982;SDS011;48698;45.736;13.926;2023-07-29T06:07:20;7.55;;;4.78;;
52982;SDS011;48698;45.736;13.926;2023-07-29T06:12:24;9.40;;;5.25;;
52982;SDS011;48698;45.736;13.926;2023-07-29T06:17:27;8.63;;;4.40;;
52982;SDS011;48698;45.736;13.926;2023-07-29T06:22:31;13.07;;;4.47;;
52982;SDS011;48698;45.736;13.926;2023-07-29T06:27:35;5.80;;;3.40;;
52982;SDS011;48698;45.736;13.926;2023-07-29T06:32:38;5.80;;;2.45;;
52982;SDS011;48698;45.736;13.926;2023-07-29T06:37:42;2.78;;;1.52;;
52982;SDS011;48698;45.736;13.926;2023-07-29T06:42:45;3.70;;;2.25;;
52982;SDS011;48698;45.736;13.926;2023-07-29T06:47:49;6.00;;;3.95;;
52982;SDS011;48698;45.736;13.926;2023-07-29T06:52:52;4.00;;;3.50;;
52982;SDS011;48698;45.736;13.926;2023-07-29T06:57:55;5.93;;;4.15;;
52982;SDS011;48698;45.736;13.926;2023-07-29T07:02:59;8.15;;;3.47;;
52982;SDS011;48698;45.736;13.926;2023-07-29T07:08:03;7.47;;;3.72;;
52982;SDS011;48698;45.736;13.926;2023-07-29T07:13:06;4.68;;;3.03;;
52982;SDS011;48698;45.736;13.926;2023-07-29T07:18:10;5.70;;;3.20;;
52982;SDS011;48698;45.736;13.926;2023-07-29T07:28:19;3.67;;;2.33;;
52982;SDS011;48698;45.736;13.926;2023-07-29T07:33:22;4.53;;;2.60;;
52982;SDS011;48698;45.736;13.926;2023-07-29T07:38:26;3.63;;;2.28;;
52982;SDS011;48698;45.736;13.926;2023-07-29T07:48:33;3.22;;;2.10;;
52982;SDS011;48698;45.736;13.926;2023-07-29T07:58:40;4.37;;;2.10;;
52982;SDS011;48698;45.736;13.926;2023-07-29T08:03:44;2.63;;;1.50;;
52982;SDS011;48698;45.736;13.926;2023-07-29T08:08:47;2.53;;;1.45;;
52982;SDS011;48698;45.736;13.926;2023-07-29T08:13:54;3.67;;;1.40;;
52982;SDS011;48698;45.736;13.926;2023-07-29T08:18:57;3.28;;;1.60;;
52982;SDS011;48698;45.736;13.926;2023-07-29T08:29:06;2.60;;;1.42;;
52982;SDS011;48698;45.736;13.926;2023-07-29T08:39:13;1680.07;;;444.52;;
52982;SDS011;48698;45.736;13.926;2023-07-29T08:44:26;376.23;;;211.18;;
52982;SDS011;48698;45.736;13.926;2023-07-29T08:49:33;257.27;;;67.47;;
52982;SDS011;48698;45.736;13.926;2023-07-29T08:54:36;4.63;;;2.17;;
52982;SDS011;48698;45.736;13.926;2023-07-29T08:59:40;254.82;;;35.53;;
52982;SDS011;48698;45.736;13.926;2023-07-29T09:04:44;2.97;;;1.50;;
52982;SDS011;48698;45.736;13.926;2023-07-29T09:14:51;4.60;;;1.70;;
52982;SDS011;48698;45.736;13.926;2023-07-29T09:24:48;1.88;;;1.33;;
52982;SDS011;48698;45.736;13.926;2023-07-29T09:29:53;1.80;;;1.50;;
52982;SDS011;48698;45.736;13.926;2023-07-29T09:34:57;2.67;;;1.52;;
52982;SDS011;48698;45.736;13.926;2023-07-29T09:40:01;1.45;;;1.30;;
52982;SDS011;48698;45.736;13.926;2023-07-29T09:45:04;3.80;;;1.50;;
52982;SDS011;48698;45.736;13.926;2023-07-29T09:50:08;3.33;;;1.90;;
52982;SDS011;48698;45.736;13.926;2023-07-29T10:05:21;3.45;;;1.70;;
52982;SDS011;48698;45.736;13.926;2023-07-29T10:10:27;2.85;;;1.52;;
52982;SDS011;48698;45.736;13.926;2023-07-29T10:15:31;2.92;;;1.40;;
52982;SDS011;48698;45.736;13.926;2023-07-29T10:20:35;4.45;;;1.73;;
52982;SDS011;48698;45.736;13.926;2023-07-29T10:25:41;4.05;;;2.45;;
52982;SDS011;48698;45.736;13.926;2023-07-29T10:30:49;5.95;;;2.10;;
52982;SDS011;48698;45.736;13.926;2023-07-29T10:35:53;3.92;;;1.98;;
52982;SDS011;48698;45.736;13.926;2023-07-29T10:40:57;3.40;;;1.58;;
52982;SDS011;48698;45.736;13.926;2023-07-29T10:46:22;3.10;;;1.75;;
52982;SDS011;48698;45.736;13.926;2023-07-29T10:51:31;6.95;;;1.77;;
52982;SDS011;48698;45.736;13.926;2023-07-29T10:56:41;5.35;;;1.90;;
52982;SDS011;48698;45.736;13.926;2023-07-29T11:01:53;4.40;;;1.50;;
52982;SDS011;48698;45.736;13.926;2023-07-29T11:16:33;2.58;;;1.58;;
52982;SDS011;48698;45.736;13.926;2023-07-29T11:21:37;6.40;;;3.13;;
52982;SDS011;48698;45.736;13.926;2023-07-29T11:26:45;9.95;;;3.10;;
52982;SDS011;48698;45.736;13.926;2023-07-29T11:31:50;6.20;;;3.00;;
52982;SDS011;48698;45.736;13.926;2023-07-29T11:36:54;4.93;;;2.20;;
52982;SDS011;48698;45.736;13.926;2023-07-29T11:41:58;7.00;;;2.53;;
52982;SDS011;48698;45.736;13.926;2023-07-29T11:47:01;4.97;;;2.15;;
52982;SDS011;48698;45.736;13.926;2023-07-29T11:52:08;6.38;;;3.00;;
52982;SDS011;48698;45.736;13.926;2023-07-29T11:57:12;4.30;;;2.15;;
52982;SDS011;48698;45.736;13.926;2023-07-29T12:02:17;7.50;;;2.00;;
52982;SDS011;48698;45.736;13.926;2023-07-29T12:07:22;7.18;;;2.20;;
52982;SDS011;48698;45.736;13.926;2023-07-29T12:12:26;4.50;;;2.30;;
52982;SDS011;48698;45.736;13.926;2023-07-29T12:17:30;6.15;;;2.60;;
52982;SDS011;48698;45.736;13.926;2023-07-29T12:22:33;3.50;;;2.58;;
52982;SDS011;48698;45.736;13.926;2023-07-29T12:27:37;4.65;;;2.40;;
52982;SDS011;48698;45.736;13.926;2023-07-29T12:32:44;8.20;;;3.83;;
52982;SDS011;48698;45.736;13.926;2023-07-29T12:37:59;5.80;;;2.33;;
52982;SDS011;48698;45.736;13.926;2023-07-29T12:43:02;4.45;;;2.58;;
52982;SDS011;48698;45.736;13.926;2023-07-29T12:48:06;4.88;;;2.30;;
52982;SDS011;48698;45.736;13.926;2023-07-29T12:53:11;5.35;;;2.38;;
52982;SDS011;48698;45.736;13.926;2023-07-29T12:58:14;5.57;;;2.47;;
52982;SDS011;48698;45.736;13.926;2023-07-29T13:03:18;4.78;;;2.65;;
52982;SDS011;48698;45.736;13.926;2023-07-29T13:08:22;8.00;;;2.67;;
52982;SDS011;48698;45.736;13.926;2023-07-29T13:13:26;5.05;;;2.60;;
52982;SDS011;48698;45.736;13.926;2023-07-29T13:18:30;7.00;;;2.53;;
52982;SDS011;48698;45.736;13.926;2023-07-29T13:23:34;4.88;;;2.40;;
52982;SDS011;48698;45.736;13.926;2023-07-29T13:28:37;6.13;;;2.45;;
52982;SDS011;48698;45.736;13.926;2023-07-29T13:33:41;6.53;;;2.90;;
52982;SDS011;48698;45.736;13.926;2023-07-29T13:38:44;4.90;;;2.55;;
52982;SDS011;48698;45.736;13.926;2023-07-29T13:43:48;10.20;;;3.40;;
52982;SDS011;48698;45.736;13.926;2023-07-29T13:48:51;5.07;;;2.80;;
52982;SDS011;48698;45.736;13.926;2023-07-29T13:53:55;6.72;;;2.53;;
52982;SDS011;48698;45.736;13.926;2023-07-29T13:58:59;3.03;;;2.10;;
52982;SDS011;48698;45.736;13.926;2023-07-29T14:04:02;5.53;;;2.05;;
52982;SDS011;48698;45.736;13.926;2023-07-29T14:09:06;4.10;;;2.53;;
52982;SDS011;48698;45.736;13.926;2023-07-29T14:14:10;7.13;;;3.00;;
52982;SDS011;48698;45.736;13.926;2023-07-29T14:19:14;4.43;;;2.30;;
52982;SDS011;48698;45.736;13.926;2023-07-29T14:24:18;4.88;;;2.60;;
52982;SDS011;48698;45.736;13.926;2023-07-29T14:29:23;6.72;;;3.13;;
52982;SDS011;48698;45.736;13.926;2023-07-29T14:34:26;4.72;;;2.45;;
52982;SDS011;48698;45.736;13.926;2023-07-29T14:39:30;7.00;;;2.65;;
52982;SDS011;48698;45.736;13.926;2023-07-29T14:44:33;6.75;;;2.65;;
52982;SDS011;48698;45.736;13.926;2023-07-29T14:49:36;8.23;;;2.45;;
52982;SDS011;48698;45.736;13.926;2023-07-29T14:54:40;9.93;;;3.42;;
52982;SDS011;48698;45.736;13.926;2023-07-29T14:59:43;8.10;;;2.58;;
52982;SDS011;48698;45.736;13.926;2023-07-29T15:04:47;6.32;;;2.70;;
52982;SDS011;48698;45.736;13.926;2023-07-29T15:09:52;4.07;;;2.47;;
52982;SDS011;48698;45.736;13.926;2023-07-29T15:14:56;13.70;;;3.45;;
52982;SDS011;48698;45.736;13.926;2023-07-29T15:19:59;7.38;;;3.10;;
52982;SDS011;48698;45.736;13.926;2023-07-29T15:25:03;5.90;;;2.97;;
52982;SDS011;48698;45.736;13.926;2023-07-29T15:30:07;5.00;;;3.10;;
52982;SDS011;48698;45.736;13.926;2023-07-29T15:35:11;5.75;;;2.88;;
52982;SDS011;48698;45.736;13.926;2023-07-29T15:40:15;7.55;;;3.15;;
52982;SDS011;48698;45.736;13.926;2023-07-29T15:45:18;5.53;;;2.83;;
52982;SDS011;48698;45.736;13.926;2023-07-29T15:50:24;8.35;;;3.30;;
52982;SDS011;48698;45.736;13.926;2023-07-29T15:55:28;6.63;;;3.22;;
52982;SDS011;48698;45.736;13.926;2023-07-29T16:00:32;6.57;;;2.80;;
52982;SDS011;48698;45.736;13.926;2023-07-29T16:05:35;7.00;;;3.30;;
52982;SDS011;48698;45.736;13.926;2023-07-29T16:10:39;8.98;;;3.40;;
52982;SDS011;48698;45.736;13.926;2023-07-29T16:15:42;8.48;;;3.60;;
52982;SDS011;48698;45.736;13.926;2023-07-29T16:20:46;7.47;;;3.38;;
52982;SDS011;48698;45.736;13.926;2023-07-29T16:25:49;4.70;;;3.30;;
52982;SDS011;48698;45.736;13.926;2023-07-29T16:30:53;5.47;;;2.70;;
52982;SDS011;48698;45.736;13.926;2023-07-29T16:35:56;5.30;;;2.17;;
52982;SDS011;48698;45.736;13.926;2023-07-29T16:40:59;6.93;;;2.60;;
52982;SDS011;48698;45.736;13.926;2023-07-29T16:46:15;5.07;;;2.50;;
52982;SDS011;48698;45.736;13.926;2023-07-29T16:51:19;3.95;;;2.33;;
52982;SDS011;48698;45.736;13.926;2023-07-29T16:56:23;5.05;;;1.80;;
52982;SDS011;48698;45.736;13.926;2023-07-29T17:01:26;116.28;;;31.73;;
52982;SDS011;48698;45.736;13.926;2023-07-29T17:06:30;5.03;;;2.85;;
52982;SDS011;48698;45.736;13.926;2023-07-29T17:11:33;213.65;;;43.90;;
52982;SDS011;48698;45.736;13.926;2023-07-29T17:16:37;234.07;;;48.03;;
52982;SDS011;48698;45.736;13.926;2023-07-29T17:21:45;757.17;;;80.78;;
52982;SDS011;48698;45.736;13.926;2023-07-29T17:26:48;1999.90;;;999.90;;
52982;SDS011;48698;45.736;13.926;2023-07-29T17:31:51;1999.90;;;999.90;;
52982;SDS011;48698;45.736;13.926;2023-07-29T17:36:55;1344.45;;;431.50;;
52982;SDS011;48698;45.736;13.926;2023-07-29T17:47:02;125.72;;;117.78;;
52982;SDS011;48698;45.736;13.926;2023-07-29T17:52:05;70.18;;;66.40;;
52982;SDS011;48698;45.736;13.926;2023-07-29T17:57:12;148.02;;;140.10;;
52982;SDS011;48698;45.736;13.926;2023-07-29T18:02:16;112.90;;;106.60;;
52982;SDS011;48698;45.736;13.926;2023-07-29T18:12:23;15.88;;;9.27;;
52982;SDS011;48698;45.736;13.926;2023-07-29T18:17:26;82.47;;;75.70;;
52982;SDS011;48698;45.736;13.926;2023-07-29T18:22:30;86.40;;;81.10;;
52982;SDS011;48698;45.736;13.926;2023-07-29T18:27:34;12.18;;;5.88;;
52982;SDS011;48698;45.736;13.926;2023-07-29T18:32:38;8.00;;;5.38;;
52982;SDS011;48698;45.736;13.926;2023-07-29T18:42:45;9.13;;;5.57;;
52982;SDS011;48698;45.736;13.926;2023-07-29T18:47:48;6.78;;;5.63;;
52982;SDS011;48698;45.736;13.926;2023-07-29T18:52:54;7.93;;;5.90;;
52982;SDS011;48698;45.736;13.926;2023-07-29T18:58:01;9.80;;;5.68;;
52982;SDS011;48698;45.736;13.926;2023-07-29T19:08:08;19.20;;;4.38;;
52982;SDS011;48698;45.736;13.926;2023-07-29T19:13:13;33.20;;;5.35;;
52982;SDS011;48698;45.736;13.926;2023-07-29T19:18:16;13.02;;;4.07;;
52982;SDS011;48698;45.736;13.926;2023-07-29T19:23:20;6.55;;;3.50;;
52982;SDS011;48698;45.736;13.926;2023-07-29T19:28:23;7.13;;;4.30;;
52982;SDS011;48698;45.736;13.926;2023-07-29T19:33:27;7.75;;;4.32;;
52982;SDS011;48698;45.736;13.926;2023-07-29T19:38:30;6.38;;;3.97;;
52982;SDS011;48698;45.736;13.926;2023-07-29T19:48:37;6.88;;;4.30;;
52982;SDS011;48698;45.736;13.926;2023-07-29T19:53:41;7.85;;;4.15;;
52982;SDS011;48698;45.736;13.926;2023-07-29T19:58:44;16.05;;;4.95;;
52982;SDS011;48698;45.736;13.926;2023-07-29T20:03:48;6.68;;;4.47;;
52982;SDS011;48698;45.736;13.926;2023-07-29T20:08:51;9.02;;;4.68;;
52982;SDS011;48698;45.736;13.926;2023-07-29T20:13:57;9.45;;;4.85;;
52982;SDS011;48698;45.736;13.926;2023-07-29T20:19:00;8.75;;;4.57;;
52982;SDS011;48698;45.736;13.926;2023-07-29T20:24:04;10.15;;;4.80;;
52982;SDS011;48698;45.736;13.926;2023-07-29T20:29:08;7.55;;;4.38;;
52982;SDS011;48698;45.736;13.926;2023-07-29T20:34:11;10.25;;;4.70;;
52982;SDS011;48698;45.736;13.926;2023-07-29T20:39:15;6.90;;;5.15;;
52982;SDS011;48698;45.736;13.926;2023-07-29T20:44:18;7.75;;;4.35;;
52982;SDS011;48698;45.736;13.926;2023-07-29T20:49:22;8.20;;;4.82;;
52982;SDS011;48698;45.736;13.926;2023-07-29T20:54:25;7.15;;;4.80;;
52982;SDS011;48698;45.736;13.926;2023-07-29T20:59:29;7.47;;;4.75;;
52982;SDS011;48698;45.736;13.926;2023-07-29T21:04:32;8.68;;;5.50;;
52982;SDS011;48698;45.736;13.926;2023-07-29T21:09:36;6.07;;;4.68;;
52982;SDS011;48698;45.736;13.926;2023-07-29T21:14:39;8.73;;;4.85;;
52982;SDS011;48698;45.736;13.926;2023-07-29T21:19:43;11.73;;;5.65;;
52982;SDS011;48698;45.736;13.926;2023-07-29T21:24:47;9.98;;;4.80;;
52982;SDS011;48698;45.736;13.926;2023-07-29T21:29:50;6.53;;;4.75;;
52982;SDS011;48698;45.736;13.926;2023-07-29T21:34:53;7.43;;;5.15;;
52982;SDS011;48698;45.736;13.926;2023-07-29T21:39:57;5.90;;;4.80;;
52982;SDS011;48698;45.736;13.926;2023-07-29T21:45:01;14.93;;;5.70;;
52982;SDS011;48698;45.736;13.926;2023-07-29T21:50:05;11.05;;;5.10;;
52982;SDS011;48698;45.736;13.926;2023-07-29T21:55:09;7.97;;;4.90;;
52982;SDS011;48698;45.736;13.926;2023-07-29T22:00:12;10.73;;;5.47;;
52982;SDS011;48698;45.736;13.926;2023-07-29T22:05:17;7.68;;;4.57;;
52982;SDS011;48698;45.736;13.926;2023-07-29T22:10:21;8.98;;;4.85;;
52982;SDS011;48698;45.736;13.926;2023-07-29T22:15:24;6.65;;;4.70;;
52982;SDS011;48698;45.736;13.926;2023-07-29T22:20:28;7.07;;;5.30;;
52982;SDS011;48698;45.736;13.926;2023-07-29T22:30:35;7.38;;;4.85;;
52982;SDS011;48698;45.736;13.926;2023-07-29T22:35:40;12.50;;;5.55;;
52982;SDS011;48698;45.736;13.926;2023-07-29T22:40:49;6.07;;;4.50;;
52982;SDS011;48698;45.736;13.926;2023-07-29T22:45:55;5.07;;;4.55;;
52982;SDS011;48698;45.736;13.926;2023-07-29T22:51:00;8.95;;;4.40;;
52982;SDS011;48698;45.736;13.926;2023-07-29T22:56:03;7.57;;;4.53;;
52982;SDS011;48698;45.736;13.926;2023-07-29T23:01:07;9.07;;;5.40;;
52982;SDS011;48698;45.736;13.926;2023-07-29T23:06:10;8.15;;;5.50;;
52982;SDS011;48698;45.736;13.926;2023-07-29T23:11:14;6.53;;;5.03;;
52982;SDS011;48698;45.736;13.926;2023-07-29T23:16:17;6.63;;;5.00;;
52982;SDS011;48698;45.736;13.926;2023-07-29T23:21:21;6.22;;;5.30;;
52982;SDS011;48698;45.736;13.926;2023-07-29T23:26:24;7.82;;;5.45;;
52982;SDS011;48698;45.736;13.926;2023-07-29T23:31:27;9.10;;;6.15;;
52982;SDS011;48698;45.736;13.926;2023-07-29T23:36:31;5.53;;;4.75;;
52982;SDS011;48698;45.736;13.926;2023-07-29T23:41:34;6.45;;;5.55;;
52982;SDS011;48698;45.736;13.926;2023-07-29T23:46:38;1999.90;;;999.90;;
52982;SDS011;48698;45.736;13.926;2023-07-29T23:51:42;6.53;;;4.68;;
52982;SDS011;48698;45.736;13.926;2023-07-29T23:56:45;8.32;;;5.50;;
